Time;durP1;ratioP1;P1;durP2;ratioP2;P2;SDS_P1;SDS_P2;PMS_P1;PMS_P2;Temp;Humidity;BMP_temperature;BMP_pressure;BME280_temperature;BME280_humidity;BME280_pressure;Samples;Min_cycle;Max_cycle;Signal;HPM_P1;HPM_P2
2023/03/21 00:01:14;;;;;;;;;;;;;;;14.84;47.82;100659.22;4984468;28;6949;-74
2023/03/21 00:03:42;;;;;;;;;;;;;;;14.84;48.46;100651.50;4984311;28;7186;-78
2023/03/21 00:06:11;;;;;;;;;;;;;;;14.84;48.01;100656.66;4983638;28;7143;-77
2023/03/21 00:08:39;;;;;;;;;;;;;;;14.84;48.20;100661.81;4987122;28;6844;-77
2023/03/21 00:11:08;;;;;;;;;;;;;;;14.83;47.70;100660.06;4966787;28;6784;-76
2023/03/21 00:13:37;;;;;;;;;;;;;;;14.86;48.63;100656.72;4984705;28;7821;-77
2023/03/21 00:16:15;;;;;;;;;;;;;;;14.86;48.14;100644.66;4988690;28;6804;-78
2023/03/21 00:18:51;;;;;;;;;;;;;;;14.86;48.20;100644.66;4962209;28;7154;-76
2023/03/21 00:21:20;;;;;;;;;;;;;;;14.88;48.67;100654.19;4984609;28;6812;-77
2023/03/21 00:23:47;;;;;;;;;;;;;;;14.89;48.25;100654.22;4988600;28;8057;-78
2023/03/21 00:26:14;;;;;;;;;;;;;;;14.91;48.34;100647.41;4961954;28;7269;-77
2023/03/21 00:28:42;;;;;;;;;;;;;;;14.92;48.47;100643.16;4983215;28;6788;-77
2023/03/21 00:31:08;;;;;;;;;;;;;;;14.94;48.71;100651.81;4985037;28;6830;-77
2023/03/21 00:33:34;;;;;;;;;;;;;;;14.95;48.14;100638.97;4984009;28;7232;-78
2023/03/21 00:36:01;;;;;;;;;;;;;;;15.00;48.54;100646.88;4977080;28;8477;-75
2023/03/21 00:38:27;;;;;;;;;;;;;;;15.00;48.37;100642.56;4979558;28;7859;-77
2023/03/21 00:40:52;;;;;;;;;;;;;;;15.03;48.29;100646.09;4985128;28;7046;-78
2023/03/21 00:43:22;;;;;;;;;;;;;;;15.00;48.32;100639.97;4983302;28;6967;-74
2023/03/21 00:45:50;;;;;;;;;;;;;;;15.03;49.04;100638.34;4986781;28;7556;-78
2023/03/21 00:48:16;;;;;;;;;;;;;;;15.04;48.83;100634.94;4981035;28;7010;-74
2023/03/21 00:50:45;;;;;;;;;;;;;;;15.04;48.44;100628.06;4954532;28;7035;-76
2023/03/21 00:53:12;;;;;;;;;;;;;;;15.04;48.79;100622.91;4977816;28;6989;-78
2023/03/21 00:55:37;;;;;;;;;;;;;;;15.03;48.78;100620.28;4986218;28;8314;-77
2023/03/21 00:58:05;;;;;;;;;;;;;;;15.03;48.73;100609.97;4983741;28;6780;-78
2023/03/21 01:00:40;;;;;;;;;;;;;;;15.03;48.89;100615.13;4981798;28;7041;-76
2023/03/21 01:03:10;;;;;;;;;;;;;;;15.02;48.83;100609.06;4969212;28;6799;-76
2023/03/21 01:08:27;;;;;;;;;;;;;;;14.98;49.16;100596.91;4974478;28;6800;-76
2023/03/21 01:10:54;;;;;;;;;;;;;;;14.97;49.50;100592.56;4970406;28;6955;-77
2023/03/21 01:13:23;;;;;;;;;;;;;;;14.96;48.79;100594.25;4963044;28;6989;-78
2023/03/21 01:15:55;;;;;;;;;;;;;;;14.96;48.49;100595.94;4994940;28;7059;-76
2023/03/21 01:18:27;;;;;;;;;;;;;;;14.95;49.82;100596.78;4972917;28;8527;-78
2023/03/21 01:20:58;;;;;;;;;;;;;;;14.95;48.86;100589.03;4978977;28;7077;-77
2023/03/21 01:23:26;;;;;;;;;;;;;;;14.92;49.36;100589.84;4989855;28;6997;-77
2023/03/21 01:25:56;;;;;;;;;;;;;;;14.90;49.35;100593.19;4987345;28;6974;-77
2023/03/21 01:28:27;;;;;;;;;;;;;;;14.85;49.23;100595.63;4988559;28;6799;-75
2023/03/21 01:30:53;;;;;;;;;;;;;;;14.76;49.17;100590.16;4990752;28;7303;-74
2023/03/21 01:33:20;;;;;;;;;;;;;;;14.69;49.45;100583.88;4993663;28;6780;-78
2023/03/21 01:35:46;;;;;;;;;;;;;;;14.62;49.21;100584.47;4974994;28;6772;-76
2023/03/21 01:38:12;;;;;;;;;;;;;;;14.53;49.76;100580.75;4989840;28;6969;-78
2023/03/21 01:40:39;;;;;;;;;;;;;;;14.43;49.70;100579.53;4971463;28;7176;-77
2023/03/21 01:43:21;;;;;;;;;;;;;;;14.33;49.49;100574.88;5003519;28;6971;-75
2023/03/21 01:46:09;;;;;;;;;;;;;;;14.21;49.29;100577.94;4990930;28;7590;-74
2023/03/21 01:48:42;;;;;;;;;;;;;;;14.09;49.96;100577.47;4988529;28;6833;-77
2023/03/21 01:51:11;;;;;;;;;;;;;;;13.98;50.35;100580.53;4971320;28;6889;-77
2023/03/21 01:53:39;;;;;;;;;;;;;;;13.90;51.04;100579.34;4983113;28;6984;-78
2023/03/21 01:56:16;;;;;;;;;;;;;;;13.80;50.23;100566.97;4954998;28;6970;-77
2023/03/21 01:58:44;;;;;;;;;;;;;;;13.72;50.58;100562.41;4970263;28;6800;-77
2023/03/21 02:01:12;;;;;;;;;;;;;;;13.67;50.91;100566.50;4988831;28;6999;-77
2023/03/21 02:03:49;;;;;;;;;;;;;;;13.62;50.67;100562.88;4987009;28;7008;-77
2023/03/21 02:06:43;;;;;;;;;;;;;;;13.58;51.62;100556.75;4987537;28;6804;-74
2023/03/21 02:09:17;;;;;;;;;;;;;;;13.53;52.25;100554.81;4970538;28;7334;-76
2023/03/21 02:11:45;;;;;;;;;;;;;;;13.49;51.65;100552.91;4973001;28;7218;-77
2023/03/21 02:14:16;;;;;;;;;;;;;;;13.45;52.01;100550.25;4991198;28;6876;-76
2023/03/21 02:17:03;;;;;;;;;;;;;;;13.43;51.86;100551.84;4985108;28;7068;-76
2023/03/21 02:20:11;;;;;;;;;;;;;;;13.41;52.74;100538.00;4982924;28;7061;-76
2023/03/21 02:23:06;;;;;;;;;;;;;;;13.41;52.38;100535.44;4990891;28;8052;-78
2023/03/21 02:26:12;;;;;;;;;;;;;;;13.45;52.26;100526.16;4976736;28;8523;-76
2023/03/21 02:29:05;;;;;;;;;;;;;;;13.47;53.13;100522.84;4990136;28;6808;-77
2023/03/21 02:31:40;;;;;;;;;;;;;;;13.55;53.39;100524.84;4969946;28;6808;-76
2023/03/21 02:34:31;;;;;;;;;;;;;;;13.62;53.59;100519.09;4992337;28;6971;-77
2023/03/21 02:37:15;;;;;;;;;;;;;;;13.69;53.39;100517.63;4990965;28;7214;-78
2023/03/21 02:40:09;;;;;;;;;;;;;;;13.77;53.22;100507.59;4973013;28;7876;-77
2023/03/21 02:43:27;;;;;;;;;;;;;;;13.85;52.49;100511.34;4981550;28;6800;-74
2023/03/21 02:46:04;;;;;;;;;;;;;;;13.93;52.65;100507.34;4921776;28;7010;-77
2023/03/21 02:49:02;;;;;;;;;;;;;;;13.99;53.23;100499.81;4980136;28;7032;-77
2023/03/21 02:51:31;;;;;;;;;;;;;;;14.06;52.58;100502.63;4977721;28;6800;-77
2023/03/21 02:54:08;;;;;;;;;;;;;;;14.12;52.60;100489.97;4978544;28;7273;-78
2023/03/21 02:56:35;;;;;;;;;;;;;;;14.18;52.29;100492.72;4971777;28;6832;-78
2023/03/21 02:59:05;;;;;;;;;;;;;;;14.24;51.71;100498.13;4967316;28;7018;-77
2023/03/21 03:01:31;;;;;;;;;;;;;;;14.28;52.47;100489.66;4966232;28;6948;-77
2023/03/21 03:03:57;;;;;;;;;;;;;;;14.29;52.45;100485.38;4982506;28;7050;-77
2023/03/21 03:07:28;;;;;;;;;;;;;;;14.29;52.42;100493.13;4987173;28;7206;-77
2023/03/21 03:10:11;;;;;;;;;;;;;;;14.27;51.77;100485.31;4974594;28;6985;-74
2023/03/21 03:13:05;;;;;;;;;;;;;;;14.27;52.76;100489.63;4964998;28;6981;-77
2023/03/21 03:16:01;;;;;;;;;;;;;;;14.26;51.75;100487.88;4980602;28;6808;-76
2023/03/21 03:18:45;;;;;;;;;;;;;;;14.27;52.83;100485.31;4960466;28;8177;-74
2023/03/21 03:21:35;;;;;;;;;;;;;;;14.30;52.08;100492.28;4979727;28;6816;-74
2023/03/21 03:24:32;;;;;;;;;;;;;;;14.32;52.47;100487.19;4961711;28;7046;-74
2023/03/21 03:27:11;;;;;;;;;;;;;;;14.34;52.38;100480.38;4973258;28;7006;-74
2023/03/21 03:29:43;;;;;;;;;;;;;;;14.38;51.84;100474.50;4987481;28;6969;-74
2023/03/21 03:32:23;;;;;;;;;;;;;;;14.41;51.98;100482.34;4981428;28;6812;-74
2023/03/21 03:34:55;;;;;;;;;;;;;;;14.43;51.69;100478.13;4975942;28;6804;-74
2023/03/21 03:37:27;;;;;;;;;;;;;;;14.45;51.32;100476.47;4987352;28;7071;-74
2023/03/21 03:40:07;;;;;;;;;;;;;;;14.48;51.51;100466.22;4984156;28;6800;-74
2023/03/21 03:42:51;;;;;;;;;;;;;;;14.47;52.09;100464.47;4983551;28;7931;-74
2023/03/21 03:45:19;;;;;;;;;;;;;;;14.47;51.39;100454.16;4966715;28;7062;-74
2023/03/21 03:48:45;;;;;;;;;;;;;;;14.47;51.52;100454.16;4970363;28;7061;-74
2023/03/21 03:51:28;;;;;;;;;;;;;;;14.44;51.47;100465.28;4986146;28;6966;-74
2023/03/21 03:54:11;;;;;;;;;;;;;;;14.43;51.60;100460.91;4982424;28;6820;-74
2023/03/21 03:56:37;;;;;;;;;;;;;;;14.40;51.60;100459.97;4983356;28;6820;-74
2023/03/21 03:59:06;;;;;;;;;;;;;;;14.35;52.30;100459.81;4986944;28;6824;-74
2023/03/21 04:01:33;;;;;;;;;;;;;;;14.30;51.85;100464.81;4962868;28;8541;-74
2023/03/21 04:03:59;;;;;;;;;;;;;;;14.25;52.81;100462.91;4948692;28;7271;-74
2023/03/21 04:06:27;;;;;;;;;;;;;;;14.19;53.22;100463.56;4984284;28;6764;-74
2023/03/21 04:08:55;;;;;;;;;;;;;;;14.12;52.54;100464.19;4981697;28;8618;-74
2023/03/21 04:11:21;;;;;;;;;;;;;;;14.08;52.93;100464.88;4975946;28;7121;-74
2023/03/21 04:13:47;;;;;;;;;;;;;;;14.05;53.00;100459.63;4966925;28;6968;-74
2023/03/21 04:16:13;;;;;;;;;;;;;;;14.01;53.26;100459.53;4982914;28;6763;-74
2023/03/21 04:18:40;;;;;;;;;;;;;;;13.99;53.80;100458.59;4986260;28;6788;-74
2023/03/21 04:21:12;;;;;;;;;;;;;;;13.97;53.27;100460.25;4984907;28;6872;-74
2023/03/21 04:23:38;;;;;;;;;;;;;;;13.93;53.58;100460.97;4974908;28;6942;-74
2023/03/21 04:26:06;;;;;;;;;;;;;;;13.87;53.23;100450.44;4957886;28;7135;-74
2023/03/21 04:28:34;;;;;;;;;;;;;;;13.84;54.35;100456.34;4976895;28;6861;-74
2023/03/21 04:31:00;;;;;;;;;;;;;;;13.83;54.24;100451.16;4953489;28;7023;-74
2023/03/21 04:33:26;;;;;;;;;;;;;;;13.80;54.64;100453.59;4955923;28;7278;-73
2023/03/21 04:35:57;;;;;;;;;;;;;;;13.81;54.78;100457.94;4976006;28;6780;-73
2023/03/21 04:38:29;;;;;;;;;;;;;;;13.82;54.00;100452.84;4980642;28;6986;-74
2023/03/21 04:40:56;;;;;;;;;;;;;;;13.85;54.91;100452.09;4987690;28;6824;-73
2023/03/21 04:43:22;;;;;;;;;;;;;;;13.87;54.52;100446.19;4970809;28;7673;-74
2023/03/21 04:45:49;;;;;;;;;;;;;;;13.92;54.95;100455.75;4979871;28;8201;-73
2023/03/21 04:48:16;;;;;;;;;;;;;;;13.94;54.47;100441.22;4966169;28;7142;-74
2023/03/21 04:50:43;;;;;;;;;;;;;;;13.97;54.16;100447.34;4956561;28;7845;-74
2023/03/21 04:53:09;;;;;;;;;;;;;;;13.99;54.89;100448.28;4961369;28;6793;-74
2023/03/21 04:55:35;;;;;;;;;;;;;;;14.03;55.09;100444.13;4969563;28;6776;-74
2023/03/21 04:58:03;;;;;;;;;;;;;;;14.04;55.15;100440.72;4972820;28;6968;-74
2023/03/21 05:00:29;;;;;;;;;;;;;;;14.08;55.18;100444.28;4972894;28;6830;-74
2023/03/21 05:02:56;;;;;;;;;;;;;;;14.11;54.61;100446.97;4971829;28;7010;-74
2023/03/21 05:05:23;;;;;;;;;;;;;;;14.15;55.14;100443.66;4976506;28;7956;-74
2023/03/21 05:07:48;;;;;;;;;;;;;;;14.19;54.43;100439.50;4972776;28;7194;-74
2023/03/21 05:10:15;;;;;;;;;;;;;;;14.21;54.24;100450.72;4981417;28;6964;-74
2023/03/21 05:12:42;;;;;;;;;;;;;;;14.22;54.64;100439.59;4983823;28;6959;-74
2023/03/21 05:15:08;;;;;;;;;;;;;;;14.22;54.39;100445.63;4985162;28;6784;-74
2023/03/21 05:17:34;;;;;;;;;;;;;;;14.23;54.02;100442.22;4978889;28;7320;-74
2023/03/21 05:20:00;;;;;;;;;;;;;;;14.24;54.85;100433.66;4967865;28;6762;-74
2023/03/21 05:22:27;;;;;;;;;;;;;;;14.25;54.49;100432.84;4974365;28;6784;-74
2023/03/21 05:24:54;;;;;;;;;;;;;;;14.27;54.50;100432.91;4987049;28;6812;-74
2023/03/21 05:27:34;;;;;;;;;;;;;;;14.28;54.18;100439.81;4981928;28;6808;-74
2023/03/21 05:30:14;;;;;;;;;;;;;;;14.27;54.13;100436.34;4978583;28;6888;-74
2023/03/21 05:32:40;;;;;;;;;;;;;;;14.27;54.33;100436.34;4984270;28;11139;-74
2023/03/21 05:35:07;;;;;;;;;;;;;;;14.30;54.50;100436.47;4981487;28;7185;-74
2023/03/21 05:37:33;;;;;;;;;;;;;;;14.33;53.91;100445.97;4974263;28;7000;-74
2023/03/21 05:39:58;;;;;;;;;;;;;;;14.35;53.82;100446.94;5000623;28;6978;-74
2023/03/21 05:42:24;;;;;;;;;;;;;;;14.38;54.20;100448.72;4981817;28;6827;-74
2023/03/21 05:44:50;;;;;;;;;;;;;;;14.38;54.35;100453.88;4966617;28;7130;-74
2023/03/21 05:47:17;;;;;;;;;;;;;;;14.38;54.08;100469.34;4980201;28;8452;-74
2023/03/21 05:49:44;;;;;;;;;;;;;;;14.39;53.64;100460.78;4986084;28;6872;-74
2023/03/21 05:52:10;;;;;;;;;;;;;;;14.37;53.97;100463.31;4967285;28;6953;-74
2023/03/21 05:54:36;;;;;;;;;;;;;;;14.37;53.87;100468.47;4972432;28;7000;-74
2023/03/21 05:57:03;;;;;;;;;;;;;;;14.36;53.22;100464.16;4963840;28;6972;-74
2023/03/21 05:59:29;;;;;;;;;;;;;;;14.35;53.78;100467.56;4948121;28;7239;-74
2023/03/21 06:01:55;;;;;;;;;;;;;;;14.32;53.65;100456.25;4970448;28;6783;-74
2023/03/21 06:04:20;;;;;;;;;;;;;;;14.24;53.21;100474.91;4979309;28;6975;-76
2023/03/21 06:06:46;;;;;;;;;;;;;;;14.19;53.49;100468.72;4967537;28;6788;-76
2023/03/21 06:09:12;;;;;;;;;;;;;;;14.11;54.08;100460.72;4986914;28;7288;-76
2023/03/21 06:11:46;;;;;;;;;;;;;;;14.06;53.80;100463.97;4994057;28;6792;-76
2023/03/21 06:14:11;;;;;;;;;;;;;;;14.01;54.42;100468.97;4985662;28;7037;-76
2023/03/21 06:16:37;;;;;;;;;;;;;;;13.99;55.24;100460.31;4988490;28;6776;-77
2023/03/21 06:19:03;;;;;;;;;;;;;;;13.93;55.07;100454.94;4967765;28;7159;-76
2023/03/21 06:21:28;;;;;;;;;;;;;;;13.89;55.27;100454.81;4972245;28;6936;-74
2023/03/21 06:23:54;;;;;;;;;;;;;;;13.87;55.70;100445.28;4973483;28;6852;-74
2023/03/21 06:26:21;;;;;;;;;;;;;;;13.89;55.54;100443.63;4980572;28;7113;-74
2023/03/21 06:28:49;;;;;;;;;;;;;;;13.94;55.40;100436.06;4990184;28;6963;-74
2023/03/21 06:31:14;;;;;;;;;;;;;;;13.96;55.53;100440.44;4973467;28;7451;-74
2023/03/21 06:33:40;;;;;;;;;;;;;;;13.99;55.31;100434.53;4983263;28;7046;-74
2023/03/21 06:36:06;;;;;;;;;;;;;;;14.02;55.26;100435.53;4985983;28;11400;-74
2023/03/21 06:38:32;;;;;;;;;;;;;;;14.03;55.35;100432.13;4976480;28;7382;-74
2023/03/21 06:40:58;;;;;;;;;;;;;;;14.05;55.57;100434.75;4970829;28;8785;-74
2023/03/21 06:43:23;;;;;;;;;;;;;;;14.05;55.42;100434.75;4982785;28;7023;-74
2023/03/21 06:45:49;;;;;;;;;;;;;;;14.06;55.91;100422.72;4985509;28;6776;-74
2023/03/21 06:48:15;;;;;;;;;;;;;;;14.08;56.70;100428.81;4983067;28;6789;-74
2023/03/21 06:50:40;;;;;;;;;;;;;;;14.09;56.23;100426.28;4980617;28;6814;-74
2023/03/21 06:53:06;;;;;;;;;;;;;;;14.13;55.74;100429.84;4979222;28;7209;-74
2023/03/21 06:55:31;;;;;;;;;;;;;;;14.16;56.24;100423.09;4982069;28;6937;-74
2023/03/21 06:57:58;;;;;;;;;;;;;;;14.18;56.81;100417.97;4977568;28;6788;-75
2023/03/21 07:00:24;;;;;;;;;;;;;;;14.21;56.50;100415.53;4955951;28;8171;-75
2023/03/21 07:02:49;;;;;;;;;;;;;;;14.26;55.66;100415.69;4983191;28;6776;-75
2023/03/21 07:05:16;;;;;;;;;;;;;;;14.27;55.92;100418.28;4976896;28;7147;-75
2023/03/21 07:07:42;;;;;;;;;;;;;;;14.29;56.38;100414.09;4975305;28;6792;-75
2023/03/21 07:10:08;;;;;;;;;;;;;;;14.31;56.52;100421.84;4980105;28;6767;-74
2023/03/21 07:12:35;;;;;;;;;;;;;;;14.35;56.81;100422.84;4990590;28;6807;-75
2023/03/21 07:15:03;;;;;;;;;;;;;;;14.36;56.37;100419.44;4970185;28;7681;-75
2023/03/21 07:17:29;;;;;;;;;;;;;;;14.39;56.25;100425.56;4986009;28;6817;-74
2023/03/21 07:19:54;;;;;;;;;;;;;;;14.42;56.15;100425.66;4953599;28;7199;-75
2023/03/21 07:22:20;;;;;;;;;;;;;;;14.44;55.93;100428.28;4978232;28;6922;-74
2023/03/21 07:24:49;;;;;;;;;;;;;;;14.46;56.51;100431.78;4981592;28;6940;-74
2023/03/21 07:27:17;;;;;;;;;;;;;;;14.47;56.95;100427.53;4969189;28;7218;-75
2023/03/21 07:29:43;;;;;;;;;;;;;;;14.47;56.26;100430.97;4984075;28;6975;-74
2023/03/21 07:32:10;;;;;;;;;;;;;;;14.48;56.49;100435.28;4965552;28;6948;-75
2023/03/21 07:34:36;;;;;;;;;;;;;;;14.53;57.07;100433.75;4978662;28;8547;-74
2023/03/21 07:37:03;;;;;;;;;;;;;;;14.56;56.74;100433.84;4966337;28;6931;-74
2023/03/21 07:39:31;;;;;;;;;;;;;;;14.62;56.11;100433.16;4967368;28;6784;-74
2023/03/21 07:41:57;;;;;;;;;;;;;;;14.68;56.62;100432.50;4967150;28;6812;-75
2023/03/21 07:44:23;;;;;;;;;;;;;;;14.73;57.18;100433.53;4985350;28;6923;-74
2023/03/21 07:46:49;;;;;;;;;;;;;;;14.79;56.10;100430.28;4969772;28;6939;-75
2023/03/21 07:49:15;;;;;;;;;;;;;;;14.85;56.12;100430.47;4965015;28;6792;-74
2023/03/21 07:51:41;;;;;;;;;;;;;;;14.91;56.20;100437.53;4980968;28;6780;-74
2023/03/21 07:54:07;;;;;;;;;;;;;;;14.98;56.39;100436.91;4976139;28;6768;-76
2023/03/21 07:56:32;;;;;;;;;;;;;;;15.04;56.29;100433.63;4984452;28;6848;-75
2023/03/21 07:58:58;;;;;;;;;;;;;;;15.10;55.41;100436.38;4980504;28;6975;-75
2023/03/21 08:01:25;;;;;;;;;;;;;;;15.17;55.56;100437.44;4978252;28;7336;-74
2023/03/21 08:03:52;;;;;;;;;;;;;;;15.16;55.56;100441.72;4977292;28;7138;-75
2023/03/21 08:06:22;;;;;;;;;;;;;;;15.12;55.41;100443.34;4962801;28;6816;-75
2023/03/21 08:08:48;;;;;;;;;;;;;;;15.10;55.65;100442.41;4968952;28;6792;-74
2023/03/21 08:11:14;;;;;;;;;;;;;;;15.11;55.55;100449.34;4980045;28;6780;-74
2023/03/21 08:13:40;;;;;;;;;;;;;;;15.12;55.55;100440.75;4980156;28;6995;-74
2023/03/21 08:16:07;;;;;;;;;;;;;;;15.18;55.99;100439.19;4966268;28;7226;-74
2023/03/21 08:18:33;;;;;;;;;;;;;;;15.23;55.41;100437.63;4971738;28;7098;-75
2023/03/21 08:20:59;;;;;;;;;;;;;;;15.26;55.35;100445.47;4980981;28;7170;-74
2023/03/21 08:23:25;;;;;;;;;;;;;;;15.30;54.89;100447.31;4976793;28;7270;-74
2023/03/21 08:25:53;;;;;;;;;;;;;;;15.35;54.94;100442.28;4959114;28;7247;-75
2023/03/21 08:28:20;;;;;;;;;;;;;;;15.40;55.22;100446.72;4981445;28;7127;-75
2023/03/21 08:30:46;;;;;;;;;;;;;;;15.45;54.54;100444.28;4957904;28;7979;-74
2023/03/21 08:33:12;;;;;;;;;;;;;;;15.49;54.45;100445.25;4982908;28;6829;-74
2023/03/21 08:35:38;;;;;;;;;;;;;;;15.55;54.42;100445.44;4980336;28;6772;-75
2023/03/21 08:38:05;;;;;;;;;;;;;;;15.60;54.22;100448.16;4972839;28;6995;-75
2023/03/21 08:40:31;;;;;;;;;;;;;;;15.64;53.74;100449.97;4983122;28;6828;-75
2023/03/21 08:42:58;;;;;;;;;;;;;;;15.69;54.10;100436.34;4980519;28;6776;-75
2023/03/21 08:45:24;;;;;;;;;;;;;;;15.75;54.03;100432.19;4985741;28;6807;-75
2023/03/21 08:47:50;;;;;;;;;;;;;;;15.80;53.96;100439.25;4987136;28;6919;-74
2023/03/21 08:50:23;;;;;;;;;;;;;;;15.86;53.91;100446.28;4962578;28;6784;-74
2023/03/21 08:52:49;;;;;;;;;;;;;;;15.89;53.53;100453.25;4977425;28;7674;-74
2023/03/21 08:55:18;;;;;;;;;;;;;;;15.85;53.31;100447.13;4979465;28;6923;-75
2023/03/21 08:57:45;;;;;;;;;;;;;;;15.80;53.59;100451.25;4971499;28;6796;-75
2023/03/21 09:00:16;;;;;;;;;;;;;;;15.78;54.23;100445.19;4980509;28;6960;-75
2023/03/21 09:02:45;;;;;;;;;;;;;;;15.77;54.12;100441.72;4967592;28;7086;-74
2023/03/21 09:05:11;;;;;;;;;;;;;;;15.75;53.62;100437.38;4963686;28;7964;-74
2023/03/21 09:07:40;;;;;;;;;;;;;;;15.77;53.94;100433.09;4967785;28;6982;-74
2023/03/21 09:10:10;;;;;;;;;;;;;;;15.79;54.06;100434.00;4969170;28;7307;-74
2023/03/21 09:12:36;;;;;;;;;;;;;;;15.83;53.86;100444.47;4967692;28;6995;-74
2023/03/21 09:15:04;;;;;;;;;;;;;;;15.81;53.67;100424.59;4981613;28;7115;-74
2023/03/21 09:17:31;;;;;;;;;;;;;;;15.77;53.77;100420.19;4983678;28;7198;-74
2023/03/21 09:19:59;;;;;;;;;;;;;;;15.69;53.75;100419.94;4974463;28;6792;-75
2023/03/21 09:22:26;;;;;;;;;;;;;;;15.62;53.49;100421.50;4954338;28;8542;-74
2023/03/21 09:24:52;;;;;;;;;;;;;;;15.63;53.91;100414.63;4977397;28;7465;-74
2023/03/21 09:27:24;;;;;;;;;;;;;;;15.69;54.51;100412.19;4980508;28;7130;-74
2023/03/21 09:29:49;;;;;;;;;;;;;;;15.79;54.54;100403.91;4964205;28;8764;-74
2023/03/21 09:32:17;;;;;;;;;;;;;;;15.91;54.19;100403.34;4969587;28;6958;-74
2023/03/21 09:34:43;;;;;;;;;;;;;;;16.08;53.91;100401.22;4963869;28;6856;-74
2023/03/21 09:37:10;;;;;;;;;;;;;;;16.27;54.01;100399.06;4982615;28;6851;-74
2023/03/21 09:39:36;;;;;;;;;;;;;;;16.42;53.96;100403.78;4966947;28;7166;-74
2023/03/21 09:42:20;;;;;;;;;;;;;;;16.60;53.32;100407.59;4972000;28;7365;-74
2023/03/21 09:45:25;;;;;;;;;;;;;;;16.85;53.39;100397.81;4986453;28;6816;-74
2023/03/21 09:47:52;;;;;;;;;;;;;;;17.05;53.42;100394.00;4950006;28;6813;-74
2023/03/21 09:50:26;;;;;;;;;;;;;;;17.24;52.37;100389.19;4987789;28;7807;-74
2023/03/21 09:52:57;;;;;;;;;;;;;;;17.41;51.63;100388.66;4985460;28;6796;-74
2023/03/21 09:55:30;;;;;;;;;;;;;;;17.54;50.89;100387.19;4990124;28;6807;-74
2023/03/21 09:58:11;;;;;;;;;;;;;;;17.56;50.72;100386.34;4986854;28;6799;-74
2023/03/21 10:00:42;;;;;;;;;;;;;;;17.59;50.30;100391.63;4986775;28;7909;-74
2023/03/21 10:03:35;;;;;;;;;;;;;;;17.60;50.27;100377.81;4968345;28;6984;-74
2023/03/21 10:06:14;;;;;;;;;;;;;;;17.63;49.73;100375.25;4984500;28;6871;-74
2023/03/21 10:08:46;;;;;;;;;;;;;;;17.69;49.65;100365.88;4989872;28;6938;-74
2023/03/21 10:11:26;;;;;;;;;;;;;;;17.76;50.22;100359.94;4979573;28;7188;-74
2023/03/21 10:14:30;;;;;;;;;;;;;;;17.83;49.48;100359.19;4986678;28;7263;-74
2023/03/21 10:17:16;;;;;;;;;;;;;;;17.89;49.58;100348.06;4981669;28;8800;-74
2023/03/21 10:19:45;;;;;;;;;;;;;;;17.94;48.44;100337.75;4986150;28;7202;-74
2023/03/21 10:22:11;;;;;;;;;;;;;;;17.98;48.69;100339.59;4987890;28;6800;-74
2023/03/21 10:24:37;;;;;;;;;;;;;;;18.02;48.04;100333.59;4989942;28;7106;-74
2023/03/21 10:27:04;;;;;;;;;;;;;;;18.03;47.78;100330.16;4978818;28;6828;-74
2023/03/21 10:29:42;;;;;;;;;;;;;;;18.05;48.33;100333.66;4983973;28;6848;-74
2023/03/21 10:32:13;;;;;;;;;;;;;;;18.08;48.07;100327.66;4972380;28;6826;-74
2023/03/21 10:34:51;;;;;;;;;;;;;;;18.06;47.08;100327.66;4970878;28;7226;-74
2023/03/21 10:37:16;;;;;;;;;;;;;;;18.01;46.86;100319.75;4987604;28;6888;-74
2023/03/21 10:39:47;;;;;;;;;;;;;;;17.96;46.81;100315.31;4985666;28;6844;-74
2023/03/21 10:42:28;;;;;;;;;;;;;;;17.94;46.51;100315.31;4969291;28;6800;-74
2023/03/21 10:44:56;;;;;;;;;;;;;;;17.94;46.61;100317.03;4988732;28;6788;-75
2023/03/21 10:47:32;;;;;;;;;;;;;;;17.94;46.82;100311.84;4982608;28;7178;-74
2023/03/21 10:50:06;;;;;;;;;;;;;;;17.92;46.34;100311.84;4979338;28;6791;-74
2023/03/21 10:52:34;;;;;;;;;;;;;;;17.91;46.08;100310.94;4990321;28;6796;-74
2023/03/21 10:55:30;;;;;;;;;;;;;;;17.92;45.91;100314.44;4970019;28;6808;-74
2023/03/21 10:58:06;;;;;;;;;;;;;;;17.90;45.64;100314.38;4968352;28;9313;-75
2023/03/21 11:00:40;;;;;;;;;;;;;;;17.87;44.88;100323.84;4966388;28;7223;-75
2023/03/21 11:03:22;;;;;;;;;;;;;;;17.80;44.47;100320.28;4979928;28;6804;-78
2023/03/21 11:05:56;;;;;;;;;;;;;;;17.68;44.58;100317.47;4983927;28;6947;-78
2023/03/21 11:08:21;;;;;;;;;;;;;;;17.56;44.87;100321.56;4969197;28;7164;-77
2023/03/21 11:11:47;;;;;;;;;;;;;;;17.39;45.38;100323.00;4989163;28;6889;-77
2023/03/21 11:14:47;;;;;;;;;;;;;;;17.16;45.93;100323.41;4976221;28;9917;-78
2023/03/21 11:17:16;;;;;;;;;;;;;;;16.96;46.56;100321.28;4984836;28;7015;-78
2023/03/21 11:20:09;;;;;;;;;;;;;;;16.85;47.19;100322.78;4985629;28;6971;-76
2023/03/21 11:22:42;;;;;;;;;;;;;;;16.76;47.37;100326.91;4965896;28;7136;-78
2023/03/21 11:25:21;;;;;;;;;;;;;;;16.72;47.56;100322.50;4989633;28;6792;-77
2023/03/21 11:27:54;;;;;;;;;;;;;;;16.63;47.42;100322.31;4975693;28;7782;-77
2023/03/21 11:30:24;;;;;;;;;;;;;;;16.55;47.70;100321.28;4982748;28;7338;-76
2023/03/21 11:32:56;;;;;;;;;;;;;;;16.44;47.92;100318.44;4973610;28;7871;-75
2023/03/21 11:35:33;;;;;;;;;;;;;;;16.37;48.13;100307.06;4984301;28;6808;-76
2023/03/21 11:37:59;;;;;;;;;;;;;;;16.32;48.25;100311.25;4963261;28;7126;-76
2023/03/21 11:40:34;;;;;;;;;;;;;;;16.33;48.04;100307.84;4968061;28;6840;-78
2023/03/21 11:43:15;;;;;;;;;;;;;;;16.36;48.23;100318.25;4985750;28;6880;-77
2023/03/21 11:46:01;;;;;;;;;;;;;;;16.47;48.58;100309.03;4961486;28;6820;-78
2023/03/21 11:48:28;;;;;;;;;;;;;;;16.62;48.36;100305.91;4984553;28;6804;-78
2023/03/21 11:51:26;;;;;;;;;;;;;;;16.78;48.47;100314.88;4975274;28;7199;-76
2023/03/21 11:54:25;;;;;;;;;;;;;;;16.96;47.99;100310.91;4977862;28;7115;-75
2023/03/21 11:57:35;;;;;;;;;;;;;;;17.22;48.10;100308.00;4987657;28;7008;-78
2023/03/21 12:00:19;;;;;;;;;;;;;;;17.44;47.67;100298.94;4965045;28;7262;-74
2023/03/21 12:03:07;;;;;;;;;;;;;;;17.65;47.58;100301.84;4983105;28;11505;-76
2023/03/21 12:05:50;;;;;;;;;;;;;;;17.81;46.95;100300.38;4984618;28;7924;-77
2023/03/21 12:08:35;;;;;;;;;;;;;;;17.93;46.41;100300.63;4987989;28;8545;-77
2023/03/21 12:11:50;;;;;;;;;;;;;;;18.02;45.92;100297.28;4988421;28;6800;-78
2023/03/21 12:14:34;;;;;;;;;;;;;;;18.14;45.93;100291.47;4983810;28;6993;-78
2023/03/21 12:17:57;;;;;;;;;;;;;;;18.32;45.80;100285.66;4988716;28;6816;-78
2023/03/21 12:20:44;;;;;;;;;;;;;;;18.56;46.07;100279.06;4987492;28;7849;-78
2023/03/21 12:23:38;;;;;;;;;;;;;;;18.80;45.23;100267.25;4987886;28;7129;-77
2023/03/21 12:26:25;;;;;;;;;;;;;;;19.04;45.08;100258.03;4989997;28;6804;-75
2023/03/21 12:29:20;;;;;;;;;;;;;;;19.29;44.90;100264.34;4982745;28;6985;-78
2023/03/21 12:32:29;;;;;;;;;;;;;;;19.46;43.93;100243.72;4984864;28;7710;-76
2023/03/21 12:35:40;;;;;;;;;;;;;;;19.57;43.37;100246.44;4974005;28;8882;-78
2023/03/21 12:38:26;;;;;;;;;;;;;;;19.65;43.05;100246.47;4964904;28;7001;-78
2023/03/21 12:41:15;;;;;;;;;;;;;;;19.73;42.40;100247.41;4984359;28;7015;-76
2023/03/21 12:43:51;;;;;;;;;;;;;;;19.87;42.19;100234.50;4982592;28;6990;-78
2023/03/21 12:46:30;;;;;;;;;;;;;;;19.96;41.92;100232.00;4962405;28;7125;-78
2023/03/21 12:49:17;;;;;;;;;;;;;;;20.01;41.65;100224.25;4982263;28;6792;-77
2023/03/21 12:51:50;;;;;;;;;;;;;;;20.10;41.33;100216.50;4978939;28;7011;-79
2023/03/21 12:54:33;;;;;;;;;;;;;;;20.17;40.95;100214.78;4980294;28;6882;-77
2023/03/21 12:57:14;;;;;;;;;;;;;;;20.24;40.17;100207.88;4964544;28;8728;-77
2023/03/21 12:59:57;;;;;;;;;;;;;;;20.30;40.08;100207.91;4985119;28;6879;-78
2023/03/21 13:02:33;;;;;;;;;;;;;;;20.33;39.87;100210.53;4978672;28;7209;-78
2023/03/21 13:05:29;;;;;;;;;;;;;;;20.25;38.62;100202.69;4981732;28;6820;-77
2023/03/21 13:08:29;;;;;;;;;;;;;;;20.11;38.61;100199.13;4979040;28;6803;-76
2023/03/21 13:10:57;;;;;;;;;;;;;;;20.05;38.78;100186.13;4944724;28;6989;-79
2023/03/21 13:13:28;;;;;;;;;;;;;;;20.05;38.58;100181.75;4986084;28;6808;-75
2023/03/21 13:16:09;;;;;;;;;;;;;;;20.10;38.92;100176.59;4980000;28;6796;-78
2023/03/21 13:19:02;;;;;;;;;;;;;;;20.17;39.00;100167.06;4986104;28;6816;-76
2023/03/21 13:21:36;;;;;;;;;;;;;;;20.21;38.98;100181.84;4986843;28;6800;-78